createdAt,value
2022-12-27T00:00:58.277Z,101500.38
2022-12-27T00:03:48.019Z,101485.72
2022-12-27T00:06:38.746Z,101488.34
2022-12-27T00:09:28.081Z,101489.03
2022-12-27T00:12:17.565Z,101493.63
2022-12-27T00:15:08.511Z,101488.97
2022-12-27T00:17:57.912Z,101479.47
2022-12-27T00:20:47.218Z,101480.31
2022-12-27T00:23:40.465Z,101482.28
2022-12-27T00:26:32.293Z,101471.38
2022-12-27T00:29:21.655Z,101481.47
2022-12-27T00:32:10.996Z,101482.88
2022-12-27T00:35:00.300Z,101481.03
2022-12-27T00:37:49.570Z,101484.25
2022-12-27T00:40:42.705Z,101489.13
2022-12-27T00:43:31.948Z,101475.88
2022-12-27T00:46:21.711Z,101480.53
2022-12-27T00:49:11.288Z,101482.25
2022-12-27T00:52:00.625Z,101475.75
2022-12-27T00:54:49.884Z,101468.72
2022-12-27T00:57:40.514Z,101461.13
2022-12-27T01:00:30.673Z,101460.03
2022-12-27T01:03:21.425Z,101457.84
2022-12-27T01:06:14.026Z,101448.63
2022-12-27T01:09:05.158Z,101443.22
2022-12-27T01:11:54.478Z,101448.97
2022-12-27T01:14:45.147Z,101419.28
2022-12-27T01:17:34.391Z,101441.09
2022-12-27T01:20:23.747Z,101432.97
2022-12-27T01:23:12.978Z,101434.59
2022-12-27T01:26:03.536Z,101417.19
2022-12-27T01:28:54.619Z,101422.97
2022-12-27T01:31:45.946Z,101411.00
2022-12-27T01:34:36.001Z,101427.38
2022-12-27T01:37:25.775Z,101423.31
2022-12-27T01:40:15.563Z,101424.44
2022-12-27T01:43:04.330Z,101422.50
2022-12-27T01:45:53.619Z,101427.66
2022-12-27T01:48:44.546Z,101420.06
2022-12-27T01:51:34.325Z,101411.38
2022-12-27T01:54:23.825Z,101411.69
2022-12-27T01:57:13.511Z,101407.88
2022-12-27T02:00:03.224Z,101404.59
2022-12-27T02:02:54.622Z,101391.88
2022-12-27T02:05:45.621Z,101400.56
2022-12-27T02:08:46.698Z,101390.00
2022-12-27T02:11:53.386Z,101373.75
2022-12-27T02:14:46.005Z,101375.69
2022-12-27T02:17:36.746Z,101362.38
2022-12-27T02:20:27.214Z,101358.88
2022-12-27T02:24:06.987Z,101361.91
2022-12-27T02:27:07.843Z,101352.97
2022-12-27T02:30:06.188Z,101360.03
2022-12-27T02:33:04.255Z,101351.59
2022-12-27T02:35:59.421Z,101344.84
2022-12-27T02:38:53.196Z,101343.75
2022-12-27T02:42:01.207Z,101343.50
2022-12-27T02:45:08.854Z,101341.63
2022-12-27T02:48:17.807Z,101338.41
2022-12-27T02:51:40.379Z,101332.16
2022-12-27T02:54:53.264Z,101322.38
2022-12-27T02:57:49.689Z,101311.25
2022-12-27T03:01:07.031Z,101325.66
2022-12-27T03:04:16.217Z,101319.97
2022-12-27T03:07:25.861Z,101319.97
2022-12-27T03:10:45.566Z,101316.97
2022-12-27T03:14:01.006Z,101310.19
2022-12-27T03:16:56.835Z,101300.69
2022-12-27T03:20:10.001Z,101297.69
2022-12-27T03:23:18.630Z,101287.34
2022-12-27T03:26:10.381Z,101292.53
2022-12-27T03:29:19.589Z,101292.25
2022-12-27T03:32:30.528Z,101275.13
2022-12-27T03:35:24.102Z,101269.97
2022-12-27T03:38:14.207Z,101265.06
2022-12-27T03:41:24.705Z,101268.59
2022-12-27T03:44:25.308Z,101199.31
2022-12-27T03:47:22.203Z,101238.69
2022-12-27T03:50:20.821Z,101222.63
2022-12-27T03:53:17.280Z,101227.78
2022-12-27T03:56:08.813Z,101238.91
2022-12-27T03:59:00.648Z,101237.00
2022-12-27T04:01:50.379Z,101212.25
2022-12-27T04:04:40.066Z,101204.09
2022-12-27T04:07:29.289Z,101206.53
2022-12-27T04:10:37.445Z,101194.84
2022-12-27T04:13:44.036Z,101156.25
2022-12-27T04:16:50.352Z,101181.50
2022-12-27T04:19:56.940Z,101169.78
2022-12-27T04:23:03.548Z,101165.44
2022-12-27T04:26:11.631Z,101155.66
2022-12-27T04:29:18.623Z,101145.28
2022-12-27T04:32:25.049Z,101138.81
2022-12-27T04:35:14.497Z,101139.31
2022-12-27T04:38:03.691Z,101136.06
2022-12-27T04:41:11.715Z,101131.44
2022-12-27T04:44:21.117Z,101114.03
2022-12-27T04:47:31.142Z,101105.06
2022-12-27T04:50:45.704Z,101102.88
2022-12-27T04:53:52.601Z,101097.97
2022-12-27T04:56:43.251Z,101088.16
2022-12-27T04:59:50.054Z,101082.72
2022-12-27T05:02:39.779Z,101058.81
2022-12-27T05:05:29.431Z,101070.22
2022-12-27T05:08:37.354Z,101057.19
2022-12-27T05:11:44.321Z,101051.97
2022-12-27T05:14:34.992Z,101046.81
2022-12-27T05:17:24.275Z,101040.28
2022-12-27T05:20:13.634Z,101026.38
2022-12-27T05:23:20.497Z,101023.66
2022-12-27T05:26:09.732Z,101010.94
2022-12-27T05:29:00.544Z,100995.97
2022-12-27T05:31:51.133Z,100992.19
2022-12-27T05:34:40.407Z,100990.81
2022-12-27T05:37:29.808Z,100968.00
2022-12-27T05:40:19.203Z,100963.91
2022-12-27T05:43:08.434Z,100946.78
2022-12-27T05:46:04.014Z,100942.44
2022-12-27T05:48:54.623Z,100914.53
2022-12-27T05:51:43.873Z,100938.13
2022-12-27T05:54:33.158Z,100923.13
2022-12-27T05:57:22.495Z,100922.31
2022-12-27T06:00:14.367Z,100900.66
2022-12-27T06:03:04.376Z,100895.72
2022-12-27T06:06:02.764Z,100883.31
2022-12-27T06:08:51.993Z,100879.50
2022-12-27T06:11:41.194Z,100876.75
2022-12-27T06:14:30.478Z,100861.78
2022-12-27T06:17:19.673Z,100854.44
2022-12-27T06:20:09.855Z,100857.72
2022-12-27T06:23:02.219Z,100844.63
2022-12-27T06:25:51.625Z,100828.72
2022-12-27T06:28:40.835Z,100819.19
2022-12-27T06:31:32.594Z,100803.50
2022-12-27T06:34:21.830Z,100804.28
2022-12-27T06:37:11.088Z,100799.97
2022-12-27T06:40:01.874Z,100791.53
2022-12-27T06:42:51.338Z,100770.16
2022-12-27T06:45:40.798Z,100777.41
2022-12-27T06:48:30.745Z,100765.69
2022-12-27T06:51:22.237Z,100749.47
2022-12-27T06:54:11.817Z,100735.84
2022-12-27T06:57:02.397Z,100726.38
2022-12-27T06:59:54.178Z,100705.41
2022-12-27T07:02:44.255Z,100715.72
2022-12-27T07:05:35.896Z,100702.06
2022-12-27T07:08:25.120Z,100720.66
2022-12-27T07:11:15.794Z,100696.94
2022-12-27T07:14:10.228Z,100698.03
2022-12-27T07:16:59.468Z,100676.03
2022-12-27T07:19:48.767Z,100670.75
2022-12-27T07:22:38.052Z,100662.38
2022-12-27T07:25:27.341Z,100654.09
2022-12-27T07:28:17.149Z,100638.41
2022-12-27T07:31:10.284Z,100635.19
2022-12-27T07:33:59.994Z,100627.91
2022-12-27T07:36:49.749Z,100614.75
2022-12-27T07:39:39.038Z,100619.41
2022-12-27T07:42:29.757Z,100614.03
2022-12-27T07:45:19.255Z,100617.03
2022-12-27T07:48:10.630Z,100625.03
2022-12-27T07:51:00.044Z,100615.53
2022-12-27T07:53:50.329Z,100593.28
2022-12-27T07:56:39.611Z,100576.19
2022-12-27T07:59:28.939Z,100589.59
2022-12-27T08:02:18.305Z,100563.44
2022-12-27T08:05:10.084Z,100582.28
2022-12-27T08:08:03.620Z,100576.16
2022-12-27T08:10:53.486Z,100571.28
2022-12-27T08:13:42.747Z,100567.00
2022-12-27T08:16:32.158Z,100564.47
2022-12-27T08:19:21.453Z,100571.25
2022-12-27T08:22:12.227Z,100549.13
2022-12-27T08:25:01.526Z,100555.38
2022-12-27T08:27:50.780Z,100560.59
2022-12-27T08:30:41.527Z,100552.94
2022-12-27T08:33:31.546Z,100547.97
2022-12-27T08:39:31.371Z,100519.75
2022-12-27T08:42:20.773Z,100533.13
2022-12-27T08:45:11.550Z,100530.88
2022-12-27T08:48:03.087Z,100526.72
2022-12-27T08:50:52.433Z,100507.63
2022-12-27T08:53:41.729Z,100509.56
2022-12-27T08:56:32.473Z,100489.53
2022-12-27T08:59:21.747Z,100505.72
2022-12-27T09:02:12.182Z,100501.66
2022-12-27T09:05:01.622Z,100486.69
2022-12-27T09:07:51.155Z,100505.53
2022-12-27T09:10:40.874Z,100483.50
2022-12-27T09:13:31.532Z,100456.50
2022-12-27T09:16:23.339Z,100455.38
2022-12-27T09:19:13.506Z,100454.72
2022-12-27T09:22:02.808Z,100459.56
2022-12-27T09:24:52.121Z,100443.13
2022-12-27T09:27:41.420Z,100447.97
2022-12-27T09:30:32.108Z,100450.38
2022-12-27T09:33:21.391Z,100443.47
2022-12-27T09:36:13.014Z,100421.88
2022-12-27T09:39:02.242Z,100424.63
2022-12-27T09:45:18.861Z,100412.06
2022-12-27T09:48:15.887Z,100387.31
2022-12-27T09:51:14.663Z,100385.38
2022-12-27T09:54:13.093Z,100397.56
2022-12-27T09:57:19.918Z,100385.69
2022-12-27T10:00:19.584Z,100389.06
2022-12-27T10:03:28.824Z,100385.53
2022-12-27T10:06:56.623Z,100374.41
2022-12-27T10:10:00.203Z,100371.22
2022-12-27T10:13:12.236Z,100364.28
2022-12-27T10:16:16.492Z,100358.34
2022-12-27T10:19:25.238Z,100352.69
2022-12-27T10:22:24.692Z,100355.22
2022-12-27T10:25:17.113Z,100358.75
2022-12-27T10:28:17.346Z,100347.31
2022-12-27T10:31:08.348Z,100353.25
2022-12-27T10:33:58.278Z,100339.72
2022-12-27T10:36:49.029Z,100325.22
2022-12-27T10:39:39.279Z,100329.97
2022-12-27T10:42:38.827Z,100313.78
2022-12-27T10:45:33.523Z,100322.63
2022-12-27T10:48:28.837Z,100309.84
2022-12-27T10:51:23.525Z,100297.13
2022-12-27T10:54:17.510Z,100290.19
2022-12-27T10:57:25.555Z,100295.75
2022-12-27T11:00:20.630Z,100282.16
2022-12-27T11:03:20.840Z,100283.78
2022-12-27T11:06:24.371Z,100294.03
2022-12-27T11:09:28.735Z,100280.13
2022-12-27T11:12:21.884Z,100282.19
2022-12-27T11:15:18.768Z,100290.59
2022-12-27T11:18:17.297Z,100279.78
2022-12-27T11:21:08.333Z,100278.84
2022-12-27T11:24:03.461Z,100272.00
2022-12-27T11:26:59.379Z,100264.13
2022-12-27T11:29:49.158Z,100266.19
2022-12-27T11:32:38.503Z,100270.94
2022-12-27T11:35:27.851Z,100241.91
2022-12-27T11:38:26.332Z,100233.50
2022-12-27T11:41:27.754Z,100235.00
2022-12-27T11:44:28.125Z,100222.53
2022-12-27T11:47:37.067Z,100217.31
2022-12-27T11:51:14.591Z,100224.41
2022-12-27T11:54:21.811Z,100211.69
2022-12-27T11:57:26.367Z,100160.00
2022-12-27T12:00:21.893Z,100215.38
2022-12-27T12:03:54.017Z,100210.41
2022-12-27T12:06:56.748Z,100211.94
2022-12-27T12:10:11.618Z,100197.66
2022-12-27T12:13:30.817Z,100184.16
2022-12-27T12:16:53.594Z,100168.97
2022-12-27T12:20:04.542Z,100157.88
2022-12-27T12:23:12.135Z,100149.59
2022-12-27T12:26:19.219Z,100143.00
2022-12-27T12:29:30.056Z,100135.59
2022-12-27T12:32:39.699Z,100142.22
2022-12-27T12:36:08.278Z,100152.19
2022-12-27T12:39:10.702Z,100138.69
2022-12-27T12:42:18.679Z,100127.06
2022-12-27T12:45:36.628Z,100121.88
2022-12-27T12:48:49.417Z,100112.50
2022-12-27T12:52:10.717Z,100103.25
2022-12-27T12:55:51.711Z,100098.09
2022-12-27T12:58:54.904Z,100090.88
2022-12-27T13:02:02.752Z,100101.50
2022-12-27T13:05:14.807Z,100093.06
2022-12-27T13:08:13.754Z,100097.75
2022-12-27T13:11:34.425Z,100071.31
2022-12-27T13:14:56.136Z,100060.00
2022-12-27T13:18:00.449Z,100059.56
2022-12-27T13:21:18.248Z,100036.09
2022-12-27T13:24:20.479Z,100043.53
2022-12-27T13:27:22.979Z,100032.56
2022-12-27T13:30:23.500Z,100014.19
2022-12-27T13:33:27.743Z,100034.72
2022-12-27T13:36:26.905Z,100006.03
2022-12-27T13:39:37.087Z,99993.38
2022-12-27T13:43:07.485Z,99996.22
2022-12-27T13:46:18.879Z,99974.28
2022-12-27T13:49:31.560Z,99978.63
2022-12-27T13:52:45.903Z,99996.09
2022-12-27T13:55:56.953Z,100002.94
2022-12-27T13:59:14.853Z,100003.88
2022-12-27T14:02:35.912Z,100021.59
2022-12-27T14:06:17.989Z,100010.03
2022-12-27T14:09:49.077Z,100004.34
2022-12-27T14:13:02.927Z,99993.81
2022-12-27T14:16:24.422Z,99991.63
2022-12-27T14:19:39.761Z,99991.03
2022-12-27T14:23:00.818Z,100004.88
2022-12-27T14:26:42.970Z,100006.38
2022-12-27T14:30:24.306Z,100010.16
2022-12-27T14:34:10.817Z,100026.75
2022-12-27T14:37:39.652Z,100042.09
2022-12-27T14:41:13.339Z,100034.06
2022-12-27T14:44:44.734Z,100032.19
2022-12-27T14:48:05.984Z,100037.69
2022-12-27T14:55:37.417Z,100031.03
2022-12-27T14:58:54.884Z,100019.00
2022-12-27T15:02:07.646Z,100021.00
2022-12-27T15:05:32.457Z,100033.88
2022-12-27T15:08:43.408Z,100027.66
2022-12-27T15:12:01.402Z,100017.88
2022-12-27T15:15:18.429Z,100014.25
2022-12-27T15:18:36.169Z,100011.69
2022-12-27T15:21:53.730Z,99993.00
2022-12-27T15:24:57.164Z,100004.91
2022-12-27T15:27:56.069Z,100023.38
2022-12-27T15:30:56.467Z,100018.13
2022-12-27T15:34:00.372Z,100012.69
2022-12-27T15:36:52.095Z,100013.81
2022-12-27T15:39:52.025Z,100028.44
2022-12-27T15:42:51.736Z,100027.84
2022-12-27T15:45:55.626Z,100029.72
2022-12-27T15:49:18.876Z,100032.94
2022-12-27T15:52:19.166Z,100032.44
2022-12-27T15:55:35.594Z,100033.75
2022-12-27T15:58:26.222Z,100026.16
2022-12-27T16:01:30.228Z,100022.63
2022-12-27T16:04:52.299Z,100028.44
2022-12-27T16:07:48.165Z,100009.16
2022-12-27T16:10:51.972Z,100018.16
2022-12-27T16:13:45.874Z,100010.50
2022-12-27T16:16:59.342Z,100016.72
2022-12-27T16:20:12.467Z,100013.50
2022-12-27T16:23:04.644Z,100024.13
2022-12-27T16:26:04.244Z,100009.38
2022-12-27T16:28:59.264Z,100032.50
2022-12-27T16:31:53.626Z,100022.28
2022-12-27T16:34:44.504Z,100019.25
2022-12-27T16:37:45.219Z,100011.69
2022-12-27T16:40:49.658Z,100025.19
2022-12-27T16:43:56.093Z,100005.28
2022-12-27T16:47:03.494Z,100009.78
2022-12-27T16:50:06.672Z,100001.91
2022-12-27T16:53:13.765Z,100014.44
2022-12-27T16:56:22.863Z,100017.34
2022-12-27T16:59:58.171Z,100024.88
2022-12-27T17:02:49.257Z,100033.56
2022-12-27T17:05:44.835Z,100028.13
2022-12-27T17:08:44.301Z,100031.84
2022-12-27T17:11:35.749Z,100033.44
2022-12-27T17:14:30.230Z,100027.81
2022-12-27T17:17:24.480Z,100022.34
2022-12-27T17:20:19.124Z,100027.50
2022-12-27T17:23:09.528Z,100026.56
2022-12-27T17:26:30.385Z,100041.81
2022-12-27T17:30:04.404Z,100039.41
2022-12-27T17:33:40.056Z,100042.75
2022-12-27T17:36:50.479Z,100061.56
2022-12-27T17:40:17.407Z,100051.59
2022-12-27T17:43:42.032Z,100061.56
2022-12-27T17:46:41.011Z,100069.88
2022-12-27T17:49:33.797Z,100067.34
2022-12-27T17:52:44.978Z,100059.97
2022-12-27T17:55:52.181Z,100066.22
2022-12-27T17:58:43.991Z,100047.75
2022-12-27T18:01:38.246Z,100042.94
2022-12-27T18:04:32.244Z,100030.44
2022-12-27T18:07:27.772Z,100037.13
2022-12-27T18:10:24.225Z,100041.94
2022-12-27T18:13:21.127Z,100045.16
2022-12-27T18:16:20.498Z,100053.84
2022-12-27T18:19:18.444Z,100056.41
2022-12-27T18:22:20.356Z,100063.19
2022-12-27T18:25:25.996Z,100065.41
2022-12-27T18:28:20.398Z,100064.13
2022-12-27T18:31:19.115Z,100062.69
2022-12-27T18:34:18.095Z,100062.31
2022-12-27T18:37:10.574Z,100062.50
2022-12-27T18:40:04.805Z,100061.53
2022-12-27T18:42:56.217Z,100053.81
2022-12-27T18:45:48.530Z,100063.78
2022-12-27T18:48:42.950Z,100051.56
2022-12-27T18:51:38.773Z,100070.19
2022-12-27T18:54:37.033Z,100062.31
2022-12-27T18:57:38.275Z,100051.88
2022-12-27T19:00:29.393Z,100066.81
2022-12-27T19:03:21.280Z,100060.06
2022-12-27T19:06:14.464Z,100071.16
2022-12-27T19:09:03.729Z,100057.19
2022-12-27T19:11:55.642Z,100066.97
2022-12-27T19:14:47.532Z,100060.38
2022-12-27T19:17:40.359Z,100056.84
2022-12-27T19:20:32.875Z,100074.69
2022-12-27T19:23:35.086Z,100068.41
2022-12-27T19:26:31.354Z,100071.28
2022-12-27T19:29:23.025Z,100078.00
2022-12-27T19:32:12.371Z,100076.13
2022-12-27T19:35:04.394Z,100080.13
2022-12-27T19:37:53.765Z,100081.41
2022-12-27T19:40:44.446Z,100064.06
2022-12-27T19:43:39.630Z,100074.97
2022-12-27T19:46:31.273Z,100070.31
2022-12-27T19:49:42.280Z,100075.91
2022-12-27T19:52:30.073Z,100085.72
2022-12-27T19:55:26.026Z,100074.47
2022-12-27T19:58:23.282Z,100064.38
2022-12-27T20:01:12.598Z,100068.22
2022-12-27T20:04:01.968Z,100063.53
2022-12-27T20:06:51.357Z,100065.78
2022-12-27T20:09:40.652Z,100066.44
2022-12-27T20:12:29.959Z,100057.63
2022-12-27T20:15:20.597Z,100058.06
2022-12-27T20:18:11.448Z,100058.06
2022-12-27T20:21:00.754Z,100074.09
2022-12-27T20:23:51.676Z,100079.25
2022-12-27T20:26:41.571Z,100067.22
2022-12-27T20:29:31.282Z,100082.91
2022-12-27T20:32:22.350Z,100070.22
2022-12-27T20:35:11.909Z,100067.03
2022-12-27T20:38:01.386Z,100066.41
2022-12-27T20:40:50.648Z,100079.06
2022-12-27T20:43:40.089Z,100068.59
2022-12-27T20:46:29.806Z,100086.91
2022-12-27T20:49:20.465Z,100084.47
2022-12-27T20:52:09.787Z,100087.19
2022-12-27T20:55:00.001Z,100088.78
2022-12-27T20:57:49.246Z,100080.44
2022-12-27T21:00:41.157Z,100087.50
2022-12-27T21:03:30.470Z,100091.16
2022-12-27T21:06:23.888Z,100081.22
2022-12-27T21:09:13.127Z,100100.94
2022-12-27T21:12:02.365Z,100096.63
2022-12-27T21:14:52.360Z,100105.59
2022-12-27T21:17:41.565Z,100098.19
2022-12-27T21:20:30.712Z,100120.97
2022-12-27T21:23:21.441Z,100126.44
2022-12-27T21:26:13.189Z,100120.66
2022-12-27T21:29:04.317Z,100116.78
2022-12-27T21:31:53.701Z,100123.72
2022-12-27T21:34:43.043Z,100129.16
2022-12-27T21:37:32.445Z,100135.91
2022-12-27T21:40:23.466Z,100141.88
2022-12-27T21:43:12.766Z,100145.41
2022-12-27T21:46:07.730Z,100142.16
2022-12-27T21:48:59.888Z,100146.97
2022-12-27T21:51:49.856Z,100153.59
2022-12-27T21:54:39.118Z,100157.19
2022-12-27T21:57:29.803Z,100152.69
2022-12-27T22:00:19.307Z,100166.00
2022-12-27T22:03:08.917Z,100188.81
2022-12-27T22:05:58.213Z,100170.06
2022-12-27T22:08:49.878Z,100151.00
2022-12-27T22:11:40.052Z,100159.66
2022-12-27T22:14:36.639Z,100172.50
2022-12-27T22:17:26.384Z,100169.56
2022-12-27T22:20:15.618Z,100169.31
2022-12-27T22:23:04.962Z,100162.13
2022-12-27T22:25:54.330Z,100170.75
2022-12-27T22:28:43.860Z,100163.88
2022-12-27T22:31:37.960Z,100187.91
2022-12-27T22:34:27.561Z,100178.78
2022-12-27T22:37:16.859Z,100184.59
2022-12-27T22:40:07.633Z,100195.63
2022-12-27T22:43:16.919Z,100199.94
2022-12-27T22:46:12.677Z,100178.91
2022-12-27T22:49:04.659Z,100200.09
2022-12-27T22:51:54.111Z,100185.91
2022-12-27T22:55:05.280Z,100196.38
2022-12-27T22:57:53.774Z,100195.75
2022-12-27T23:00:43.456Z,100187.81
2022-12-27T23:03:32.924Z,100199.41
2022-12-27T23:06:24.611Z,100191.66
2022-12-27T23:09:13.819Z,100175.94
2022-12-27T23:12:03.155Z,100167.91
2022-12-27T23:14:52.422Z,100166.16
2022-12-27T23:17:41.840Z,100158.06
2022-12-27T23:20:34.261Z,100159.66
2022-12-27T23:23:26.082Z,100159.03
2022-12-27T23:26:18.130Z,100161.72
2022-12-27T23:29:08.522Z,100181.78
2022-12-27T23:31:59.273Z,100166.41
2022-12-27T23:34:48.631Z,100172.97
2022-12-27T23:37:37.968Z,100167.53
2022-12-27T23:40:28.947Z,100154.34
2022-12-27T23:43:51.012Z,100162.53
2022-12-27T23:46:30.678Z,100167.81
2022-12-27T23:49:19.959Z,100178.06
2022-12-27T23:52:09.159Z,100163.91
2022-12-27T23:54:58.777Z,100166.69
2022-12-27T23:57:49.386Z,100157.34
